createdAt,value
2022-08-01T00:01:31.885Z,30.86
2022-08-01T00:03:59.982Z,31.07
2022-08-01T00:06:29.237Z,30.63
2022-08-01T00:08:57.730Z,30.52
2022-08-01T00:11:26.643Z,30.36
2022-08-01T00:13:55.164Z,30.64
2022-08-01T00:16:26.253Z,30.29
2022-08-01T00:18:55.216Z,30.50
2022-08-01T00:21:23.601Z,30.33
2022-08-01T00:23:51.574Z,30.12
2022-08-01T00:26:19.682Z,30.19
2022-08-01T00:28:47.939Z,30.37
2022-08-01T00:31:15.865Z,30.56
2022-08-01T00:33:43.990Z,30.12
2022-08-01T00:36:12.202Z,30.46
2022-08-01T00:38:40.543Z,30.34
2022-08-01T00:41:08.560Z,30.49
2022-08-01T00:43:36.929Z,30.44
2022-08-01T00:46:04.972Z,30.39
2022-08-01T00:48:32.912Z,30.14
2022-08-01T00:51:01.281Z,30.47
2022-08-01T00:53:51.268Z,30.50
2022-08-01T00:56:19.036Z,30.32
2022-08-01T00:58:47.121Z,30.36
2022-08-01T01:01:21.940Z,30.45
2022-08-01T01:04:00.184Z,30.38
2022-08-01T01:06:58.595Z,30.35
2022-08-01T01:10:00.141Z,30.15
2022-08-01T01:12:50.258Z,30.42
2022-08-01T01:15:41.662Z,30.38
2022-08-01T01:18:21.901Z,30.55
2022-08-01T01:21:29.941Z,30.32
2022-08-01T01:24:15.291Z,30.02
2022-08-01T01:27:07.974Z,29.89
2022-08-01T01:29:58.600Z,29.75
2022-08-01T01:32:39.803Z,29.72
2022-08-01T01:35:12.114Z,29.82
2022-08-01T01:37:41.841Z,29.76
2022-08-01T01:40:12.942Z,29.70
2022-08-01T01:42:43.592Z,29.76
2022-08-01T01:45:13.425Z,29.65
2022-08-01T01:47:44.181Z,29.66
2022-08-01T01:50:13.984Z,29.77
2022-08-01T01:52:45.524Z,29.98
2022-08-01T01:55:16.565Z,29.77
2022-08-01T01:57:46.526Z,29.68
2022-08-01T02:00:16.862Z,29.92
2022-08-01T02:02:47.327Z,29.71
2022-08-01T02:05:16.752Z,29.64
2022-08-01T02:07:46.232Z,29.39
2022-08-01T02:10:18.596Z,29.56
2022-08-01T02:12:51.273Z,29.45
2022-08-01T02:15:20.952Z,29.50
2022-08-01T02:17:51.632Z,29.42
2022-08-01T02:20:19.838Z,29.28
2022-08-01T02:22:59.132Z,29.23
2022-08-01T02:25:35.312Z,29.28
2022-08-01T02:28:14.702Z,29.11
2022-08-01T02:30:48.562Z,29.17
2022-08-01T02:33:20.602Z,28.98
2022-08-01T02:36:32.084Z,29.11
2022-08-01T02:38:46.053Z,29.06
2022-08-01T02:41:20.659Z,28.98
2022-08-01T02:43:53.681Z,29.15
2022-08-01T02:46:29.958Z,29.30
2022-08-01T02:49:02.224Z,29.33
2022-08-01T02:51:32.656Z,29.35
2022-08-01T02:54:04.038Z,29.30
2022-08-01T02:56:37.599Z,29.14
2022-08-01T02:59:19.780Z,29.14
2022-08-01T03:01:52.775Z,29.14
2022-08-01T03:04:24.589Z,28.89
2022-08-01T03:06:54.412Z,28.97
2022-08-01T03:09:24.538Z,28.97
2022-08-01T03:11:53.898Z,28.90
2022-08-01T03:14:25.129Z,28.70
2022-08-01T03:16:56.269Z,29.14
2022-08-01T03:19:27.879Z,28.89
2022-08-01T03:21:59.870Z,28.78
2022-08-01T03:24:29.794Z,28.89
2022-08-01T03:26:59.942Z,28.84
2022-08-01T03:29:31.190Z,28.64
2022-08-01T03:32:01.599Z,29.01
2022-08-01T03:34:31.140Z,28.85
2022-08-01T03:37:13.949Z,28.79
2022-08-01T03:39:51.689Z,28.73
2022-08-01T03:42:25.099Z,28.80
2022-08-01T03:45:04.169Z,28.62
2022-08-01T03:47:41.901Z,28.59
2022-08-01T03:50:15.890Z,28.84
2022-08-01T03:52:48.069Z,28.72
2022-08-01T03:55:18.250Z,28.79
2022-08-01T03:57:48.351Z,28.89
2022-08-01T04:00:19.664Z,28.47
2022-08-01T04:02:50.070Z,28.48
2022-08-01T04:05:22.059Z,28.93
2022-08-01T04:07:58.138Z,28.56
2022-08-01T04:10:26.590Z,28.53
2022-08-01T04:12:55.330Z,28.54
2022-08-01T04:15:23.271Z,28.43
2022-08-01T04:17:51.322Z,28.46
2022-08-01T04:20:19.690Z,28.71
2022-08-01T04:22:48.289Z,28.63
2022-08-01T04:25:23.009Z,28.69
2022-08-01T04:27:54.399Z,28.60
2022-08-01T04:30:28.610Z,28.69
2022-08-01T04:33:00.310Z,28.45
2022-08-01T04:36:02.964Z,28.67
2022-08-01T04:38:25.909Z,28.85
2022-08-01T04:40:55.119Z,28.76
2022-08-01T04:43:24.249Z,28.98
2022-08-01T04:45:53.139Z,28.81
2022-08-01T04:48:23.306Z,29.21
2022-08-01T04:50:52.644Z,29.25
2022-08-01T04:53:24.700Z,29.37
2022-08-01T04:55:53.629Z,29.33
2022-08-01T04:58:21.589Z,29.49
2022-08-01T05:00:49.797Z,29.34
2022-08-01T05:03:18.240Z,29.38
2022-08-01T05:05:46.691Z,29.60
2022-08-01T05:08:14.782Z,29.78
2022-08-01T05:10:43.729Z,29.76
2022-08-01T05:13:12.269Z,29.94
2022-08-01T05:15:40.390Z,29.94
2022-08-01T05:18:10.029Z,30.07
2022-08-01T05:20:38.550Z,29.94
2022-08-01T05:23:06.709Z,30.08
2022-08-01T05:25:56.676Z,30.15
2022-08-01T05:28:25.799Z,30.30
2022-08-01T05:30:56.264Z,30.21
2022-08-01T05:33:24.370Z,30.49
2022-08-01T05:35:52.388Z,30.70
2022-08-01T05:38:20.689Z,31.03
2022-08-01T05:40:48.784Z,31.32
2022-08-01T05:43:16.899Z,31.50
2022-08-01T05:45:46.231Z,31.20
2022-08-01T05:48:14.872Z,30.86
2022-08-01T05:50:42.909Z,30.78
2022-08-01T05:53:11.329Z,30.84
2022-08-01T05:55:39.287Z,30.74
2022-08-01T05:58:07.399Z,30.96
2022-08-01T06:00:40.992Z,30.92
2022-08-01T06:03:08.984Z,30.92
2022-08-01T06:05:37.048Z,30.64
2022-08-01T06:08:05.393Z,30.66
2022-08-01T06:10:33.485Z,30.30
2022-08-01T06:13:04.232Z,30.24
2022-08-01T06:15:34.086Z,30.74
2022-08-01T06:18:02.187Z,30.64
2022-08-01T06:20:30.125Z,31.14
2022-08-01T06:22:59.914Z,31.14
2022-08-01T06:25:30.916Z,30.93
2022-08-01T06:27:59.066Z,30.53
2022-08-01T06:30:27.534Z,30.66
2022-08-01T06:32:59.929Z,31.05
2022-08-01T06:35:30.894Z,30.74
2022-08-01T06:37:59.025Z,30.61
2022-08-01T06:40:26.989Z,31.09
2022-08-01T06:42:55.188Z,31.20
2022-08-01T06:45:28.391Z,31.11
2022-08-01T06:47:56.569Z,31.12
2022-08-01T06:50:24.580Z,31.27
2022-08-01T06:52:52.648Z,31.59
2022-08-01T06:55:21.030Z,31.62
2022-08-01T06:57:51.569Z,31.96
2022-08-01T07:00:23.700Z,31.36
2022-08-01T07:02:53.338Z,31.61
2022-08-01T07:05:21.718Z,31.59
2022-08-01T07:07:50.076Z,31.46
2022-08-01T07:10:19.018Z,31.85
2022-08-01T07:12:46.950Z,32.12
2022-08-01T07:15:16.784Z,31.94
2022-08-01T07:17:45.088Z,32.06
2022-08-01T07:20:16.283Z,32.25
2022-08-01T07:22:47.466Z,31.97
2022-08-01T07:25:16.668Z,32.31
2022-08-01T07:27:46.026Z,32.36
2022-08-01T07:30:14.341Z,31.95
2022-08-01T07:32:42.537Z,32.52
2022-08-01T07:35:10.964Z,32.62
2022-08-01T07:37:48.431Z,31.93
2022-08-01T07:40:19.217Z,32.46
2022-08-01T07:42:48.278Z,32.54
2022-08-01T07:45:16.501Z,32.77
2022-08-01T07:47:45.225Z,32.26
2022-08-01T07:50:14.206Z,32.53
2022-08-01T07:52:42.285Z,32.26
2022-08-01T07:55:16.455Z,32.25
2022-08-01T07:57:45.173Z,32.35
2022-08-01T08:00:14.840Z,32.24
2022-08-01T08:02:43.617Z,32.78
2022-08-01T08:05:12.267Z,31.91
2022-08-01T08:07:40.796Z,32.02
2022-08-01T08:10:09.568Z,32.09
2022-08-01T08:12:37.657Z,32.45
2022-08-01T08:15:07.139Z,32.48
2022-08-01T08:17:35.577Z,32.73
2022-08-01T08:20:09.074Z,32.97
2022-08-01T08:22:38.843Z,33.42
2022-08-01T08:25:08.201Z,33.36
2022-08-01T08:27:37.960Z,33.40
2022-08-01T08:30:12.540Z,34.16
2022-08-01T08:32:41.129Z,33.44
2022-08-01T08:35:11.939Z,33.62
2022-08-01T08:37:47.399Z,33.47
2022-08-01T08:40:18.008Z,33.46
2022-08-01T08:42:47.868Z,33.52
2022-08-01T08:45:15.865Z,33.69
2022-08-01T08:47:47.940Z,33.31
2022-08-01T08:50:16.664Z,33.91
2022-08-01T08:52:46.000Z,33.86
2022-08-01T08:55:16.756Z,33.53
2022-08-01T08:57:46.069Z,34.15
2022-08-01T09:00:15.196Z,33.64
2022-08-01T09:02:45.117Z,33.61
2022-08-01T09:05:19.077Z,34.04
2022-08-01T09:07:47.997Z,34.15
2022-08-01T09:10:16.277Z,34.02
2022-08-01T09:13:07.797Z,33.90
2022-08-01T09:15:45.119Z,35.17
2022-08-01T09:18:53.617Z,35.14
2022-08-01T09:21:25.272Z,34.12
2022-08-01T09:23:55.979Z,34.32
2022-08-01T09:26:32.756Z,34.86
2022-08-01T09:29:05.978Z,34.58
2022-08-01T09:31:47.887Z,34.41
2022-08-01T09:34:19.820Z,34.25
2022-08-01T09:36:55.789Z,34.68
2022-08-01T09:39:29.216Z,34.90
2022-08-01T09:42:00.658Z,34.81
2022-08-01T09:44:55.095Z,34.67
2022-08-01T09:47:38.822Z,35.27
2022-08-01T09:50:11.238Z,35.24
2022-08-01T09:52:40.930Z,35.36
2022-08-01T09:55:11.008Z,34.69
2022-08-01T09:57:39.927Z,35.50
2022-08-01T10:00:35.680Z,35.22
2022-08-01T10:03:28.246Z,36.03
2022-08-01T10:05:58.243Z,35.45
2022-08-01T10:08:28.556Z,35.07
2022-08-01T10:11:13.047Z,35.25
2022-08-01T10:13:45.037Z,35.63
2022-08-01T10:16:14.508Z,35.28
2022-08-01T10:18:46.983Z,36.21
2022-08-01T10:21:16.150Z,35.78
2022-08-01T10:24:06.436Z,35.99
2022-08-01T10:26:36.875Z,36.74
2022-08-01T10:29:46.752Z,35.99
2022-08-01T10:32:00.356Z,35.89
2022-08-01T10:34:30.357Z,36.37
2022-08-01T10:36:59.275Z,36.43
2022-08-01T10:42:17.586Z,36.72
2022-08-01T10:44:49.623Z,36.85
2022-08-01T10:47:50.034Z,36.73
2022-08-01T10:50:37.885Z,36.24
2022-08-01T10:53:23.893Z,36.19
2022-08-01T10:56:02.586Z,36.25
2022-08-01T10:58:42.567Z,35.99
2022-08-01T11:01:17.662Z,37.22
2022-08-01T11:04:02.115Z,37.19
2022-08-01T11:06:36.537Z,37.27
2022-08-01T11:09:36.441Z,37.23
2022-08-01T11:12:24.806Z,36.93
2022-08-01T11:14:59.764Z,37.51
2022-08-01T11:17:37.967Z,36.97
2022-08-01T11:20:14.039Z,36.91
2022-08-01T11:23:02.449Z,36.66
2022-08-01T11:26:05.919Z,38.79
2022-08-01T11:28:32.825Z,39.37
2022-08-01T11:31:07.603Z,38.14
2022-08-01T11:33:49.362Z,37.19
2022-08-01T11:36:37.004Z,37.68
2022-08-01T11:39:13.502Z,37.49
2022-08-01T11:41:44.963Z,37.02
2022-08-01T11:44:20.952Z,37.37
2022-08-01T11:47:10.048Z,38.42
2022-08-01T11:49:39.385Z,38.90
2022-08-01T11:52:11.088Z,39.12
2022-08-01T11:54:51.702Z,37.78
2022-08-01T11:57:23.194Z,37.99
2022-08-01T12:00:03.591Z,37.76
2022-08-01T12:02:41.281Z,37.93
2022-08-01T12:05:14.061Z,38.51
2022-08-01T12:07:44.348Z,37.99
2022-08-01T12:10:18.310Z,38.71
2022-08-01T12:12:49.642Z,38.75
2022-08-01T12:15:20.409Z,38.36
2022-08-01T12:18:08.072Z,38.04
2022-08-01T12:20:42.780Z,39.34
2022-08-01T12:23:22.428Z,38.52
2022-08-01T12:25:54.733Z,38.25
2022-08-01T12:28:23.976Z,38.97
2022-08-01T12:30:52.616Z,38.10
2022-08-01T12:33:21.814Z,37.83
2022-08-01T12:35:50.157Z,38.12
2022-08-01T12:38:24.150Z,38.96
2022-08-01T12:40:52.960Z,38.63
2022-08-01T12:43:28.455Z,38.50
2022-08-01T12:46:00.662Z,38.78
2022-08-01T12:48:31.842Z,39.07
2022-08-01T12:51:02.520Z,38.79
2022-08-01T12:53:40.321Z,38.76
2022-08-01T12:56:13.891Z,38.49
2022-08-01T12:58:42.113Z,39.01
2022-08-01T13:01:12.253Z,38.40
2022-08-01T13:03:41.097Z,38.60
2022-08-01T13:06:16.539Z,38.55
2022-08-01T13:08:46.768Z,38.94
2022-08-01T13:11:17.835Z,39.03
2022-08-01T13:13:49.838Z,38.46
2022-08-01T13:16:27.994Z,38.31
2022-08-01T13:19:03.497Z,39.22
2022-08-01T13:21:53.030Z,38.97
2022-08-01T13:24:29.631Z,39.47
2022-08-01T13:27:01.459Z,39.20
2022-08-01T13:29:43.955Z,39.06
2022-08-01T13:32:29.153Z,38.81
2022-08-01T13:35:07.236Z,38.38
2022-08-01T13:37:42.183Z,38.75
2022-08-01T13:40:11.836Z,39.47
2022-08-01T13:42:40.069Z,39.53
2022-08-01T13:45:13.963Z,39.43
2022-08-01T13:48:03.967Z,39.88
2022-08-01T13:50:33.754Z,39.49
2022-08-01T13:53:01.869Z,39.31
2022-08-01T13:55:34.452Z,38.94
2022-08-01T13:58:04.301Z,39.04
2022-08-01T14:00:32.699Z,39.52
2022-08-01T14:03:00.588Z,39.77
2022-08-01T14:05:28.721Z,39.75
2022-08-01T14:07:56.922Z,40.32
2022-08-01T14:10:25.393Z,39.74
2022-08-01T14:12:56.825Z,39.18
2022-08-01T14:15:38.047Z,39.57
2022-08-01T14:18:10.113Z,39.37
2022-08-01T14:20:40.317Z,40.36
2022-08-01T14:23:09.837Z,39.85
2022-08-01T14:26:03.788Z,39.75
2022-08-01T14:28:31.443Z,39.63
2022-08-01T14:30:59.909Z,39.91
2022-08-01T14:33:28.417Z,40.84
2022-08-01T14:36:03.531Z,40.95
2022-08-01T14:38:35.990Z,40.49
2022-08-01T14:41:04.872Z,39.93
2022-08-01T14:43:34.177Z,39.56
2022-08-01T14:46:04.809Z,40.23
2022-08-01T14:48:33.367Z,40.69
2022-08-01T14:51:05.432Z,40.83
2022-08-01T14:53:35.675Z,40.76
2022-08-01T14:56:05.458Z,40.18
2022-08-01T14:58:34.171Z,41.08
2022-08-01T15:01:02.388Z,41.07
2022-08-01T15:03:30.652Z,40.80
2022-08-01T15:05:59.364Z,40.32
2022-08-01T15:08:27.668Z,40.70
2022-08-01T15:10:55.922Z,40.76
2022-08-01T15:13:23.834Z,40.64
2022-08-01T15:15:51.874Z,40.15
2022-08-01T15:18:20.002Z,39.97
2022-08-01T15:20:48.062Z,40.81
2022-08-01T15:23:16.114Z,41.79
2022-08-01T15:25:45.522Z,41.52
2022-08-01T15:28:13.707Z,41.27
2022-08-01T15:30:42.311Z,41.99
2022-08-01T15:33:10.474Z,41.03
2022-08-01T15:35:38.523Z,41.33
2022-08-01T15:38:06.385Z,41.12
2022-08-01T15:40:35.850Z,40.79
2022-08-01T15:43:04.082Z,40.19
2022-08-01T15:45:48.693Z,40.19
2022-08-01T15:48:18.152Z,41.20
2022-08-01T15:50:46.512Z,40.84
2022-08-01T15:53:14.643Z,40.71
2022-08-01T15:55:46.589Z,40.84
2022-08-01T15:58:21.113Z,41.19
2022-08-01T16:00:49.385Z,40.65
2022-08-01T16:03:17.331Z,40.51
2022-08-01T16:05:45.447Z,39.93
2022-08-01T16:08:14.706Z,39.70
2022-08-01T16:10:43.853Z,40.11
2022-08-01T16:13:12.557Z,39.62
2022-08-01T16:15:40.844Z,39.85
2022-08-01T16:18:12.788Z,40.22
2022-08-01T16:20:45.774Z,40.75
2022-08-01T16:23:15.579Z,40.96
2022-08-01T16:25:45.280Z,41.26
2022-08-01T16:28:14.607Z,39.67
2022-08-01T16:30:54.356Z,39.37
2022-08-01T16:33:45.700Z,39.97
2022-08-01T16:36:21.901Z,40.23
2022-08-01T16:38:53.148Z,39.98
2022-08-01T16:41:21.126Z,39.76
2022-08-01T16:43:53.328Z,39.79
2022-08-01T16:46:26.983Z,39.81
2022-08-01T16:48:54.985Z,39.82
2022-08-01T16:51:23.198Z,39.41
2022-08-01T16:53:51.396Z,39.15
2022-08-01T16:56:20.457Z,39.35
2022-08-01T16:58:48.541Z,38.97
2022-08-01T17:02:00.444Z,39.38
2022-08-01T17:04:08.347Z,38.72
2022-08-01T17:06:36.512Z,38.64
2022-08-01T17:09:05.143Z,39.27
2022-08-01T17:11:33.304Z,39.21
2022-08-01T17:14:01.611Z,39.04
2022-08-01T17:16:30.177Z,38.88
2022-08-01T17:18:58.068Z,38.44
2022-08-01T17:21:26.482Z,38.91
2022-08-01T17:23:54.507Z,39.28
2022-08-01T17:26:22.568Z,38.97
2022-08-01T17:28:50.704Z,38.63
2022-08-01T17:31:18.751Z,38.85
2022-08-01T17:33:48.670Z,38.53
2022-08-01T17:36:21.331Z,39.10
2022-08-01T17:38:49.605Z,38.75
2022-08-01T17:41:17.630Z,38.75
2022-08-01T17:43:45.947Z,38.41
2022-08-01T17:46:14.032Z,38.09
2022-08-01T17:48:42.002Z,38.18
2022-08-01T17:51:10.403Z,38.04
2022-08-01T17:53:38.440Z,37.93
2022-08-01T17:56:27.183Z,38.25
2022-08-01T17:58:55.604Z,38.51
2022-08-01T18:01:26.430Z,37.80
2022-08-01T18:03:58.746Z,38.14
2022-08-01T18:06:27.270Z,37.89
2022-08-01T18:08:56.511Z,38.15
2022-08-01T18:11:28.245Z,37.85
2022-08-01T18:13:57.930Z,38.12
2022-08-01T18:16:28.756Z,38.05
2022-08-01T18:18:56.919Z,37.60
2022-08-01T18:21:24.927Z,37.70
2022-08-01T18:23:53.196Z,37.64
2022-08-01T18:26:22.226Z,37.66
2022-08-01T18:28:50.407Z,37.57
2022-08-01T18:31:20.923Z,37.48
2022-08-01T18:33:49.256Z,37.27
2022-08-01T18:36:31.932Z,37.35
2022-08-01T18:39:06.433Z,37.24
2022-08-01T18:41:39.481Z,37.65
2022-08-01T18:44:08.974Z,37.62
2022-08-01T18:46:38.812Z,37.49
2022-08-01T18:49:11.913Z,37.51
2022-08-01T18:51:44.587Z,37.39
2022-08-01T18:54:14.672Z,37.37
2022-08-01T18:56:44.789Z,37.53
2022-08-01T18:59:14.327Z,37.30
2022-08-01T19:01:42.604Z,37.37
2022-08-01T19:04:11.316Z,37.36
2022-08-01T19:06:40.355Z,37.21
2022-08-01T19:09:09.169Z,37.36
2022-08-01T19:11:37.749Z,37.27
2022-08-01T19:14:05.646Z,36.97
2022-08-01T19:16:34.121Z,36.84
2022-08-01T19:19:07.128Z,36.89
2022-08-01T19:21:39.319Z,36.57
2022-08-01T19:24:23.593Z,36.51
2022-08-01T19:27:05.173Z,36.09
2022-08-01T19:29:39.438Z,36.24
2022-08-01T19:32:10.648Z,36.20
2022-08-01T19:35:12.856Z,36.28
2022-08-01T19:37:52.576Z,36.28
2022-08-01T19:40:26.656Z,36.25
2022-08-01T19:42:57.385Z,36.43
2022-08-01T19:45:29.780Z,36.23
2022-08-01T19:47:59.797Z,36.07
2022-08-01T19:50:29.287Z,36.03
2022-08-01T19:52:59.130Z,36.14
2022-08-01T19:55:28.918Z,36.11
2022-08-01T20:00:50.710Z,36.00
2022-08-01T20:03:19.814Z,36.02
2022-08-01T20:05:47.920Z,35.84
2022-08-01T20:08:17.673Z,36.01
2022-08-01T20:10:47.925Z,35.52
2022-08-01T20:13:17.962Z,35.58
2022-08-01T20:15:47.474Z,35.54
2022-08-01T20:18:15.637Z,35.34
2022-08-01T20:20:46.232Z,35.34
2022-08-01T20:23:18.785Z,35.30
2022-08-01T20:25:50.546Z,35.53
2022-08-01T20:28:26.995Z,35.30
2022-08-01T20:31:03.499Z,35.34
2022-08-01T20:33:39.579Z,35.38
2022-08-01T20:36:12.319Z,35.44
2022-08-01T20:38:56.401Z,35.33
2022-08-01T20:41:27.220Z,35.29
2022-08-01T20:43:59.609Z,35.27
2022-08-01T20:46:29.450Z,35.24
2022-08-01T20:48:59.079Z,35.35
2022-08-01T20:51:28.866Z,35.26
2022-08-01T20:53:57.308Z,35.11
2022-08-01T20:56:28.488Z,35.18
2022-08-01T20:59:39.956Z,35.08
2022-08-01T21:02:31.229Z,35.03
2022-08-01T21:05:12.233Z,34.98
2022-08-01T21:07:59.071Z,35.01
2022-08-01T21:10:29.610Z,35.06
2022-08-01T21:13:05.974Z,35.07
2022-08-01T21:16:11.155Z,35.06
2022-08-01T21:19:20.234Z,35.01
2022-08-01T21:21:57.370Z,35.02
2022-08-01T21:24:34.860Z,34.78
2022-08-01T21:27:05.211Z,34.54
2022-08-01T21:29:34.740Z,34.54
2022-08-01T21:32:13.282Z,34.45
2022-08-01T21:34:46.711Z,34.44
2022-08-01T21:37:17.814Z,34.52
2022-08-01T21:39:48.201Z,34.52
2022-08-01T21:42:19.237Z,34.57
2022-08-01T21:44:48.572Z,34.44
2022-08-01T21:47:17.021Z,34.49
2022-08-01T21:49:45.211Z,34.52
2022-08-01T21:52:21.715Z,34.44
2022-08-01T21:55:00.514Z,34.38
2022-08-01T21:58:02.132Z,34.45
2022-08-01T22:00:30.821Z,34.33
2022-08-01T22:03:22.624Z,34.37
2022-08-01T22:05:52.420Z,34.08
2022-08-01T22:08:37.300Z,34.15
2022-08-01T22:11:07.671Z,34.23
2022-08-01T22:13:37.240Z,34.33
2022-08-01T22:16:06.940Z,34.25
2022-08-01T22:18:36.893Z,34.27
2022-08-01T22:21:05.205Z,34.35
2022-08-01T22:23:37.336Z,34.33
2022-08-01T22:26:08.235Z,34.25
2022-08-01T22:28:38.350Z,33.91
2022-08-01T22:31:07.442Z,34.04
2022-08-01T22:33:37.448Z,34.26
2022-08-01T22:36:07.417Z,34.25
2022-08-01T22:38:36.092Z,34.27
2022-08-01T22:41:14.581Z,34.33
2022-08-01T22:43:58.529Z,34.05
2022-08-01T22:46:35.400Z,34.22
2022-08-01T22:49:22.951Z,34.14
2022-08-01T22:52:24.759Z,34.23
2022-08-01T22:55:06.770Z,34.34
2022-08-01T22:57:50.713Z,34.29
2022-08-01T23:00:19.508Z,34.17
2022-08-01T23:02:53.410Z,34.17
2022-08-01T23:05:23.900Z,34.05
2022-08-01T23:07:57.576Z,34.27
2022-08-01T23:10:27.049Z,34.25
2022-08-01T23:12:56.431Z,34.35
2022-08-01T23:15:25.675Z,34.54
2022-08-01T23:17:55.455Z,34.09
2022-08-01T23:20:23.979Z,34.03
2022-08-01T23:22:54.001Z,33.99
2022-08-01T23:25:23.837Z,33.97
2022-08-01T23:28:05.097Z,34.05
2022-08-01T23:30:36.032Z,34.01
2022-08-01T23:33:04.627Z,34.15
2022-08-01T23:35:38.975Z,34.04
2022-08-01T23:38:10.417Z,33.90
2022-08-01T23:40:38.790Z,33.82
2022-08-01T23:43:08.338Z,33.95
2022-08-01T23:46:03.653Z,33.92
2022-08-01T23:48:37.436Z,33.96
2022-08-01T23:51:07.178Z,33.75
2022-08-01T23:53:37.635Z,33.66
2022-08-01T23:56:06.769Z,33.73
2022-08-01T23:58:34.846Z,33.74
